Observation data for Ralls on 08/12/2019      Previous  Date       Current Mesonet Observations  Soil Data  Daily Summary Page  Observations in Plain Language
KRLS 120500Z 01005KT 26/13 A3003 RMK A01 T02580134  RH  048%=      5-min Rain = 0
KRLS 120505Z 00006KT 26/14 A3003 RMK A01 T02560135  RH  049%=      5-min Rain = 0
KRLS 120510Z 02006KT 25/14 A3003 RMK A01 T02540135  RH  050%=      5-min Rain = 0
KRLS 120515Z 03005KT 25/14 A3003 RMK A01 T02530135  RH  050%=      5-min Rain = 0
KRLS 120520Z 06003KT 25/13 A3002 RMK A01 T02530134  RH  050%=      5-min Rain = 0
KRLS 120525Z 04004KT 25/13 A3002 RMK A01 T02500133  RH  050%=      5-min Rain = 0
KRLS 120530Z 05005KT 25/13 A3002 RMK A01 T02500134  RH  051%=      5-min Rain = 0
KRLS 120535Z 05005KT 25/13 A3002 RMK A01 T02460134  RH  052%=      5-min Rain = 0
KRLS 120540Z 05006KT 25/13 A3002 RMK A01 T02460134  RH  052%=      5-min Rain = 0
KRLS 120545Z 05005KT 25/14 A3002 RMK A01 T02450135  RH  052%=      5-min Rain = 0
KRLS 120550Z 05006KT 24/14 A3002 RMK A01 T02440135  RH  053%=      5-min Rain = 0
KRLS 120555Z 05005KT 24/14 A3002 RMK A01 T02410135  RH  054%=      5-min Rain = 0
KRLS 120600Z 05005KT 24/13 A3002 RMK A01 T02400134  RH  054%=      5-min Rain = 0
KRLS 120605Z 05005KT 24/13 A3002 RMK A01 T02390133  RH  054%=      5-min Rain = 0
KRLS 120610Z 04005KT 24/13 A3002 RMK A01 T02370134  RH  054%=      5-min Rain = 0
KRLS 120615Z 04003KT 24/13 A3002 RMK A01 T02370133  RH  055%=      5-min Rain = 0
KRLS 120620Z 04003KT 24/13 A3002 RMK A01 T02350133  RH  055%=      5-min Rain = 0
KRLS 120625Z 05003KT 23/13 A3002 RMK A01 T02330134  RH  056%=      5-min Rain = 0
KRLS 120630Z 05005KT 23/13 A3002 RMK A01 T02320133  RH  056%=      5-min Rain = 0
KRLS 120635Z 05005KT 23/13 A3002 RMK A01 T02320133  RH  056%=      5-min Rain = 0
KRLS 120640Z 05005KT 23/13 A3002 RMK A01 T02290133  RH  057%=      5-min Rain = 0
KRLS 120645Z 05005KT 23/13 A3002 RMK A01 T02300134  RH  057%=      5-min Rain = 0
KRLS 120650Z 05005KT 23/13 A3001 RMK A01 T02290133  RH  057%=      5-min Rain = 0
KRLS 120655Z 05005KT 23/13 A3001 RMK A01 T02290132  RH  057%=      5-min Rain = 0
KRLS 120700Z 05005KT 23/13 A3001 RMK A01 T02280132  RH  057%=      5-min Rain = 0
KRLS 120705Z 05005KT 23/13 A3001 RMK A01 T02290133  RH  057%=      5-min Rain = 0
KRLS 120710Z 05005KT 23/13 A3001 RMK A01 T02280131  RH  056%=      5-min Rain = 0
KRLS 120715Z 05005KT 23/13 A3001 RMK A01 T02280131  RH  056%=      5-min Rain = 0
KRLS 120720Z 05005KT 23/13 A30 RMK A01 T02270129  RH  056%=      5-min Rain = 0
KRLS 120725Z 05005KT 23/13 A30 RMK A01 T02260130  RH  057%=      5-min Rain = 0
KRLS 120730Z 05005KT 23/13 A30 RMK A01 T02260130  RH  057%=      5-min Rain = 0
KRLS 120735Z 05005KT 22/13 A30 RMK A01 T02240131  RH  058%=      5-min Rain = 0
KRLS 120740Z 05005KT 22/13 A30 RMK A01 T02240132  RH  058%=      5-min Rain = 0
KRLS 120745Z 05005KT 22/13 A30 RMK A01 T02230133  RH  059%=      5-min Rain = 0
KRLS 120750Z 04005KT 22/13 A3001 RMK A01 T02230133  RH  059%=      5-min Rain = 0
KRLS 120755Z 02006KT 22/14 A3001 RMK A01 T02210135  RH  060%=      5-min Rain = 0
KRLS 120800Z 03005KT 22/13 A30 RMK A01 T02230134  RH  060%=      5-min Rain = 0
KRLS 120805Z 05005KT 23/13 A30 RMK A01 T02260132  RH  057%=      5-min Rain = 0
KRLS 120810Z 06004KT 22/13 A30 RMK A01 T02240130  RH  057%=      5-min Rain = 0
KRLS 120815Z 06003KT 22/13 A30 RMK A01 T02230128  RH  057%=      5-min Rain = 0
KRLS 120820Z 05003KT 22/13 A30 RMK A01 T02170128  RH  059%=      5-min Rain = 0
KRLS 120825Z 05003KT 22/13 A30 RMK A01 T02170128  RH  059%=      5-min Rain = 0
KRLS 120830Z 07003KT 22/13 A30 RMK A01 T02180130  RH  060%=      5-min Rain = 0
KRLS 120835Z 10004KT 22/13 A30 RMK A01 T02210131  RH  059%=      5-min Rain = 0
KRLS 120840Z 11004KT 23/13 A30 RMK A01 T02250128  RH  056%=      5-min Rain = 0
KRLS 120845Z 12004KT 22/13 A30 RMK A01 T02210129  RH  058%=      5-min Rain = 0
KRLS 120850Z 13004KT 22/13 A30 RMK A01 T02170129  RH  060%=      5-min Rain = 0
KRLS 120855Z 14004KT 21/13 A30 RMK A01 T02130128  RH  061%=      5-min Rain = 0
KRLS 120900Z 15004KT 21/13 A30 RMK A01 T02130127  RH  060%=      5-min Rain = 0
KRLS 120905Z 16004KT 21/13 A30 RMK A01 T02130126  RH  060%=      5-min Rain = 0
KRLS 120910Z 17004KT 22/13 A30 RMK A01 T02170125  RH  058%=      5-min Rain = 0
KRLS 120915Z 17005KT 22/12 A30 RMK A01 T02160124  RH  058%=      5-min Rain = 0
KRLS 120920Z 17006KT 21/12 A30 RMK A01 T02140123  RH  058%=      5-min Rain = 0
KRLS 120925Z 19006KT 21/12 A30 RMK A01 T02090121  RH  059%=      5-min Rain = 0
KRLS 120930Z 19005KT 21/12 A30 RMK A01 T02070119  RH  059%=      5-min Rain = 0
KRLS 120935Z 20006KT 21/12 A30 RMK A01 T02050121  RH  061%=      5-min Rain = 0
KRLS 120940Z 20006KT 21/12 A30 RMK A01 T02050122  RH  061%=      5-min Rain = 0
KRLS 120945Z 20007KT 21/12 A30 RMK A01 T02060122  RH  061%=      5-min Rain = 0
KRLS 120950Z 20006KT 21/12 A30 RMK A01 T02060121  RH  060%=      5-min Rain = 0
KRLS 120955Z 20005KT 21/12 A30 RMK A01 T02060120  RH  060%=      5-min Rain = 0
KRLS 121000Z 19007KT 21/12 A30 RMK A01 T02090117  RH  058%=      5-min Rain = 0
KRLS 121005Z 18008KT 21/12 A2999 RMK A01 T02080117  RH  058%=      5-min Rain = 0
KRLS 121010Z 18009KT 21/12 A2999 RMK A01 T02110116  RH  057%=      5-min Rain = 0
KRLS 121015Z 19006KT 21/11 A2999 RMK A01 T02110114  RH  056%=      5-min Rain = 0
KRLS 121020Z 19006KT 21/11 A2999 RMK A01 T02120111  RH  054%=      5-min Rain = 0
KRLS 121025Z 19007KT 21/11 A2999 RMK A01 T02140110  RH  053%=      5-min Rain = 0
KRLS 121030Z 19006KT 22/11 A30 RMK A01 T02160110  RH  053%=      5-min Rain = 0
KRLS 121035Z 19004KT 21/11 A30 RMK A01 T02130109  RH  053%=      5-min Rain = 0
KRLS 121040Z 19005KT 21/11 A30 RMK A01 T02120109  RH  054%=      5-min Rain = 0
KRLS 121045Z 19006KT 21/11 A30 RMK A01 T02130110  RH  054%=      5-min Rain = 0
KRLS 121050Z 20003KT 21/11 A30 RMK A01 T02110110  RH  054%=      5-min Rain = 0
KRLS 121055Z 21002KT 22/11 A30 RMK A01 T02170108  RH  052%=      5-min Rain = 0
KRLS 121100Z 20003KT 22/11 A30 RMK A01 T02180109  RH  052%=      5-min Rain = 0
KRLS 121105Z 20004KT 22/11 A30 RMK A01 T02180109  RH  052%=      5-min Rain = 0
KRLS 121110Z 21004KT 22/11 A30 RMK A01 T02150108  RH  052%=      5-min Rain = 0
KRLS 121115Z 21004KT 21/11 A30 RMK A01 T02110109  RH  054%=      5-min Rain = 0
KRLS 121120Z 20005KT 21/11 A30 RMK A01 T02080110  RH  055%=      5-min Rain = 0
KRLS 121125Z 20006KT 21/11 A30 RMK A01 T02050111  RH  057%=      5-min Rain = 0
KRLS 121130Z 20007KT 21/12 A30 RMK A01 T02080115  RH  057%=      5-min Rain = 0
KRLS 121135Z 21007KT 22/12 A30 RMK A01 T02150115  RH  055%=      5-min Rain = 0
KRLS 121140Z 21006KT 22/12 A30 RMK A01 T02170118  RH  055%=      5-min Rain = 0
KRLS 121145Z 21006KT 22/12 A30 RMK A01 T02170119  RH  056%=      5-min Rain = 0
KRLS 121150Z 21005KT 22/12 A30 RMK A01 T02150120  RH  057%=      5-min Rain = 0
KRLS 121155Z 22006KT 22/12 A3001 RMK A01 T02170120  RH  056%=      5-min Rain = 0
KRLS 121200Z 22006KT 22/12 A3001 RMK A01 T02160119  RH  056%=      5-min Rain = 0
KRLS 121205Z 22005KT 21/12 A3001 RMK A01 T02110118  RH  057%=      5-min Rain = 0
KRLS 121210Z 22005KT 21/12 A3001 RMK A01 T02060119  RH  059%=      5-min Rain = 0
KRLS 121215Z 22006KT 21/12 A3001 RMK A01 T02050119  RH  060%=      5-min Rain = 0
KRLS 121220Z 22005KT 21/12 A3001 RMK A01 T02050119  RH  060%=      5-min Rain = 0
KRLS 121225Z 22005KT 21/12 A3001 RMK A01 T02050119  RH  060%=      5-min Rain = 0
KRLS 121230Z 22005KT 21/12 A3001 RMK A01 T02080121  RH  060%=      5-min Rain = 0
KRLS 121235Z 22005KT 22/12 A3001 RMK A01 T02160122  RH  057%=      5-min Rain = 0
KRLS 121240Z 21004KT 22/12 A3001 RMK A01 T02170123  RH  057%=      5-min Rain = 0
KRLS 121245Z 19003KT 22/13 A3001 RMK A01 T02200125  RH  057%=      5-min Rain = 0
KRLS 121250Z 18004KT 22/13 A3001 RMK A01 T02220129  RH  058%=      5-min Rain = 0
KRLS 121255Z 18006KT 23/13 A3001 RMK A01 T02260129  RH  056%=      5-min Rain = 0
KRLS 121300Z 18006KT 23/13 A3001 RMK A01 T02280131  RH  056%=      5-min Rain = 0
KRLS 121305Z 18006KT 23/13 A3001 RMK A01 T02330133  RH  055%=      5-min Rain = 0
KRLS 121310Z 18006KT 24/14 A3001 RMK A01 T02380135  RH  055%=      5-min Rain = 0
KRLS 121315Z 18006KT 24/14 A3001 RMK A01 T02420137  RH  054%=      5-min Rain = 0
KRLS 121320Z 19006KT 25/14 A3001 RMK A01 T02470138  RH  053%=      5-min Rain = 0
KRLS 121325Z 19007KT 25/14 A3001 RMK A01 T02520138  RH  051%=      5-min Rain = 0
KRLS 121330Z 19006KT 26/14 A3001 RMK A01 T02570140  RH  050%=      5-min Rain = 0
KRLS 121335Z 20007KT 26/14 A3001 RMK A01 T02610140  RH  049%=      5-min Rain = 0
KRLS 121340Z 20008KT 26/14 A3001 RMK A01 T02630141  RH  049%=      5-min Rain = 0
KRLS 121345Z 20008KT 27/14 A3001 RMK A01 T02660142  RH  049%=      5-min Rain = 0
KRLS 121350Z 20009KT 27/14 A3001 RMK A01 T02670143  RH  048%=      5-min Rain = 0
KRLS 121355Z 20009KT 27/14 A3001 RMK A01 T02710144  RH  048%=      5-min Rain = 0
KRLS 121400Z 20011KT 27/14 A3001 RMK A01 T02720143  RH  047%=      5-min Rain = 0
KRLS 121405Z 20011KT 27/14 A3001 RMK A01 T02740144  RH  047%=      5-min Rain = 0
KRLS 121410Z 19013KT 28/14 A3002 RMK A01 T02770143  RH  046%=      5-min Rain = 0
KRLS 121415Z 20012KT 28/14 A3002 RMK A01 T02790143  RH  045%=      5-min Rain = 0
KRLS 121420Z 20011KT 28/14 A3002 RMK A01 T02810144  RH  045%=      5-min Rain = 0
KRLS 121425Z 20012KT 28/14 A3002 RMK A01 T02820144  RH  045%=      5-min Rain = 0
KRLS 121430Z 20012KT 28/14 A3002 RMK A01 T02840144  RH  044%=      5-min Rain = 0
KRLS 121435Z 21011KT 29/14 A3002 RMK A01 T02870144  RH  043%=      5-min Rain = 0
KRLS 121440Z 21012KT 29/14 A3002 RMK A01 T02870143  RH  043%=      5-min Rain = 0
KRLS 121445Z 22011KT 29/14 A3002 RMK A01 T02880143  RH  043%=      5-min Rain = 0
KRLS 121450Z 20011KT 30/15 A3002 RMK A01 T02950145  RH  042%=      5-min Rain = 0
KRLS 121455Z 21011KT 30/15 A3002 RMK A01 T02950145  RH  042%=      5-min Rain = 0
KRLS 121500Z 21011KT 30/15 A3002 RMK A01 T02970145  RH  041%=      5-min Rain = 0
KRLS 121505Z 22013G18KT 30/14 A3002 RMK A01 T02990143  RH  040%=      5-min Rain = 0
KRLS 121510Z 21012G18KT 30/14 A3002 RMK A01 T03020143  RH  040%=      5-min Rain = 0
KRLS 121515Z 21011KT 30/14 A3002 RMK A01 T03040143  RH  039%=      5-min Rain = 0
KRLS 121520Z 21012G17KT 31/14 A3001 RMK A01 T03050143  RH  039%=      5-min Rain = 0
KRLS 121525Z 21014KT 31/14 A3001 RMK A01 T03050142  RH  039%=      5-min Rain = 0
KRLS 121530Z 21013G18KT 31/14 A3001 RMK A01 T03100143  RH  038%=      5-min Rain = 0
KRLS 121535Z 21014KT 31/14 A3001 RMK A01 T03080142  RH  038%=      5-min Rain = 0
KRLS 121540Z 21014G19KT 31/14 A3001 RMK A01 T03090141  RH  038%=      5-min Rain = 0
KRLS 121545Z 22014KT 31/14 A3001 RMK A01 T03130144  RH  037%=      5-min Rain = 0
KRLS 121550Z 22011G17KT 32/15 A3001 RMK A01 T03180146  RH  037%=      5-min Rain = 0
KRLS 121555Z 22013G18KT 32/14 A3001 RMK A01 T03170142  RH  036%=      5-min Rain = 0
KRLS 121600Z 22012G17KT 31/14 A3001 RMK A01 T03140144  RH  037%=      5-min Rain = 0
KRLS 121605Z 21013KT 32/14 A3001 RMK A01 T03180142  RH  036%=      5-min Rain = 0
KRLS 121610Z 22012KT 32/14 A3001 RMK A01 T03200142  RH  036%=      5-min Rain = 0
KRLS 121615Z 21012G17KT 32/14 A3001 RMK A01 T03230144  RH  035%=      5-min Rain = 0
KRLS 121620Z 23011KT 32/14 A3001 RMK A01 T03180143  RH  036%=      5-min Rain = 0
KRLS 121625Z 21011KT 32/14 A3001 RMK A01 T03220144  RH  036%=      5-min Rain = 0
KRLS 121630Z 20010KT 33/14 A3001 RMK A01 T03250144  RH  035%=      5-min Rain = 0
KRLS 121635Z 20011KT 33/14 A3001 RMK A01 T03270144  RH  035%=      5-min Rain = 0
KRLS 121640Z 21009KT 33/14 A3001 RMK A01 T03260143  RH  035%=      5-min Rain = 0
KRLS 121645Z 22011G16KT 33/14 A3001 RMK A01 T03300143  RH  034%=      5-min Rain = 0
KRLS 121650Z 22011G16KT 33/14 A3001 RMK A01 T03290144  RH  034%=      5-min Rain = 0
KRLS 121655Z 23010G15KT 33/15 A30 RMK A01 T03310145  RH  034%=      5-min Rain = 0
KRLS 121700Z 22008KT 33/15 A30 RMK A01 T03330146  RH  034%=      5-min Rain = 0
KRLS 121705Z 20008KT 34/15 A30 RMK A01 T03350146  RH  033%=      5-min Rain = 0
KRLS 121710Z 21011KT 34/15 A30 RMK A01 T03390145  RH  032%=      5-min Rain = 0
KRLS 121715Z 20010KT 34/15 A30 RMK A01 T03420147  RH  032%=      5-min Rain = 0
KRLS 121720Z 20009G14KT 35/15 A30 RMK A01 T03450146  RH  032%=      5-min Rain = 0
KRLS 121725Z 21009KT 35/15 A30 RMK A01 T03450145  RH  032%=      5-min Rain = 0
KRLS 121730Z 20007G12KT 35/15 A30 RMK A01 T03450147  RH  032%=      5-min Rain = 0
KRLS 121735Z 20009G17KT 35/15 A30 RMK A01 T03460146  RH  032%=      5-min Rain = 0
KRLS 121740Z 18010KT 35/14 A30 RMK A01 T03480144  RH  031%=      5-min Rain = 0
KRLS 121745Z 19010KT 35/14 A30 RMK A01 T03490143  RH  030%=      5-min Rain = 0
KRLS 121750Z 19008G14KT 35/15 A2999 RMK A01 T03510145  RH  030%=      5-min Rain = 0
KRLS 121755Z 17008KT 35/15 A2999 RMK A01 T03510147  RH  031%=      5-min Rain = 0
KRLS 121800Z 19007G13KT 36/15 A2999 RMK A01 T03560147  RH  030%=      5-min Rain = 0
KRLS 121805Z 18007G13KT 35/14 A2999 RMK A01 T03540144  RH  030%=      5-min Rain = 0
KRLS 121810Z 17009KT 36/14 A2999 RMK A01 T03580142  RH  029%=      5-min Rain = 0
KRLS 121815Z 16009KT 36/14 A2999 RMK A01 T03620144  RH  028%=      5-min Rain = 0
KRLS 121820Z 15011KT 36/14 A2999 RMK A01 T03610139  RH  028%=      5-min Rain = 0
KRLS 121825Z 16011G17KT 36/14 A2998 RMK A01 T03560141  RH  029%=      5-min Rain = 0
KRLS 121830Z 17010KT 36/14 A2998 RMK A01 T03590136  RH  027%=      5-min Rain = 0
KRLS 121835Z 17010G17KT 36/14 A2998 RMK A01 T03630138  RH  027%=      5-min Rain = 0
KRLS 121840Z 15011G16KT 37/14 A2998 RMK A01 T03670139  RH  027%=      5-min Rain = 0
KRLS 121845Z 15011G16KT 37/13 A2998 RMK A01 T03700134  RH  026%=      5-min Rain = 0
KRLS 121850Z 19011G21KT 37/13 A2998 RMK A01 T03690131  RH  025%=      5-min Rain = 0
KRLS 121855Z 17011KT 37/13 A2998 RMK A01 T03710132  RH  025%=      5-min Rain = 0
KRLS 121900Z 15010G15KT 37/13 A2998 RMK A01 T03680132  RH  025%=      5-min Rain = 0
KRLS 121905Z 16012G18KT 37/13 A2997 RMK A01 T03720132  RH  025%=      5-min Rain = 0
KRLS 121910Z 16008KT 38/13 A2997 RMK A01 T03780130  RH  024%=      5-min Rain = 0
KRLS 121915Z 15010G17KT 37/13 A2997 RMK A01 T03720127  RH  024%=      5-min Rain = 0
KRLS 121920Z 15013G18KT 37/12 A2997 RMK A01 T03740124  RH  023%=      5-min Rain = 0
KRLS 121925Z 15008G13KT 38/12 A2996 RMK A01 T03760121  RH  023%=      5-min Rain = 0
KRLS 121930Z 15012G19KT 38/13 A2996 RMK A01 T03770125  RH  023%=      5-min Rain = 0
KRLS 121935Z 17012G18KT 38/13 A2996 RMK A01 T03790125  RH  023%=      5-min Rain = 0
KRLS 121940Z 15012G19KT 38/12 A2996 RMK A01 T03770121  RH  022%=      5-min Rain = 0
KRLS 121945Z 15012G18KT 38/12 A2996 RMK A01 T03810121  RH  022%=      5-min Rain = 0
KRLS 121950Z 18011G17KT 39/12 A2996 RMK A01 T03860120  RH  021%=      5-min Rain = 0
KRLS 121955Z 16011G17KT 38/12 A2996 RMK A01 T03810119  RH  022%=      5-min Rain = 0
KRLS 122000Z 17012KT 38/12 A2996 RMK A01 T03820122  RH  022%=      5-min Rain = 0
KRLS 122005Z 18013G18KT 38/12 A2995 RMK A01 T03810121  RH  022%=      5-min Rain = 0
KRLS 122010Z 17011G17KT 38/12 A2995 RMK A01 T03840123  RH  022%=      5-min Rain = 0
KRLS 122015Z 16011KT 38/12 A2995 RMK A01 T03770120  RH  022%=      5-min Rain = 0
KRLS 122020Z 17010KT 36/12 A2995 RMK A01 T03640120  RH  024%=      5-min Rain = 0
KRLS 122025Z 17008G14KT 38/12 A2994 RMK A01 T03770124  RH  023%=      5-min Rain = 0
KRLS 122030Z 17014G20KT 38/12 A2994 RMK A01 T03830124  RH  022%=      5-min Rain = 0
KRLS 122035Z 16010G16KT 38/12 A2994 RMK A01 T03780123  RH  023%=      5-min Rain = 0
KRLS 122040Z 15010KT 38/12 A2993 RMK A01 T03820122  RH  022%=      5-min Rain = 0
KRLS 122045Z 17012G19KT 37/12 A2993 RMK A01 T03740124  RH  023%=      5-min Rain = 0
KRLS 122050Z 18013G19KT 39/13 A2993 RMK A01 T03880126  RH  022%=      5-min Rain = 0
KRLS 122055Z 17013G18KT 38/12 A2993 RMK A01 T03840124  RH  022%=      5-min Rain = 0
KRLS 122100Z 16011G16KT 39/13 A2993 RMK A01 T03880125  RH  022%=      5-min Rain = 0
KRLS 122105Z 15012G18KT 38/12 A2992 RMK A01 T03840124  RH  022%=      5-min Rain = 0
KRLS 122110Z 15010G15KT 38/13 A2992 RMK A01 T03830125  RH  022%=      5-min Rain = 0
KRLS 122115Z 16012G18KT 39/13 A2992 RMK A01 T03890125  RH  022%=      5-min Rain = 0
KRLS 122120Z 16011G16KT 38/12 A2992 RMK A01 T03790122  RH  022%=      5-min Rain = 0
KRLS 122125Z 17010G17KT 37/12 A2991 RMK A01 T03710123  RH  023%=      5-min Rain = 0
KRLS 122130Z 18013G19KT 37/12 A2991 RMK A01 T03710122  RH  023%=      5-min Rain = 0
KRLS 122135Z 18011G17KT 38/13 A2991 RMK A01 T03760126  RH  023%=      5-min Rain = 0
KRLS 122140Z 17011KT 37/13 A2991 RMK A01 T03690125  RH  024%=      5-min Rain = 0
KRLS 122145Z 15010KT 38/13 A2991 RMK A01 T03800127  RH  023%=      5-min Rain = 0
KRLS 122150Z 15012G18KT 39/13 A2991 RMK A01 T03880128  RH  022%=      5-min Rain = 0
KRLS 122155Z 17015KT 38/13 A2991 RMK A01 T03840127  RH  023%=      5-min Rain = 0
KRLS 122200Z 18011KT 37/13 A2991 RMK A01 T03690126  RH  024%=      5-min Rain = 0
KRLS 122205Z 16010KT 38/13 A299 RMK A01 T03780128  RH  023%=      5-min Rain = 0
KRLS 122210Z 17011KT 39/13 A299 RMK A01 T03870127  RH  022%=      5-min Rain = 0
KRLS 122215Z 16012G17KT 39/13 A299 RMK A01 T03870127  RH  022%=      5-min Rain = 0
KRLS 122220Z 16013KT 37/13 A299 RMK A01 T03720126  RH  024%=      5-min Rain = 0
KRLS 122225Z 16010G15KT 38/13 A299 RMK A01 T03770126  RH  023%=      5-min Rain = 0
KRLS 122230Z 15009KT 37/12 A299 RMK A01 T03690124  RH  024%=      5-min Rain = 0
KRLS 122235Z 15009KT 38/13 A299 RMK A01 T03750127  RH  024%=      5-min Rain = 0
KRLS 122240Z 17011KT 38/12 A299 RMK A01 T03830123  RH  022%=      5-min Rain = 0
KRLS 122245Z 19009KT 38/12 A299 RMK A01 T03810117  RH  021%=      5-min Rain = 0
KRLS 122250Z 17009KT 38/12 A299 RMK A01 T03750122  RH  023%=      5-min Rain = 0
KRLS 122255Z 16009KT 38/12 A2989 RMK A01 T03790124  RH  023%=      5-min Rain = 0
KRLS 122300Z 17014G20KT 38/12 A2989 RMK A01 T03840120  RH  021%=      5-min Rain = 0
KRLS 122305Z 17012G17KT 39/12 A2989 RMK A01 T03860119  RH  021%=      5-min Rain = 0
KRLS 122310Z 16010KT 39/12 A2989 RMK A01 T03850116  RH  021%=      5-min Rain = 0
KRLS 122315Z 16010KT 39/12 A2988 RMK A01 T03870117  RH  021%=      5-min Rain = 0
KRLS 122320Z 17011KT 39/12 A2988 RMK A01 T03870116  RH  021%=      5-min Rain = 0
KRLS 122325Z 18008KT 39/11 A2988 RMK A01 T03850114  RH  021%=      5-min Rain = 0
KRLS 122330Z 18008KT 38/11 A2988 RMK A01 T03840109  RH  020%=      5-min Rain = 0
KRLS 122335Z 23008G13KT 38/11 A2988 RMK A01 T03790107  RH  020%=      5-min Rain = 0
KRLS 122340Z 20012G17KT 37/11 A2988 RMK A01 T03730106  RH  021%=      5-min Rain = 0
KRLS 122345Z 20014KT 38/10 A2988 RMK A01 T03790098  RH  019%=      5-min Rain = 0
KRLS 122350Z 20010KT 38/10 A2988 RMK A01 T03820103  RH  019%=      5-min Rain = 0
KRLS 122355Z 20012KT 38/11 A2987 RMK A01 T03820106  RH  020%=      5-min Rain = 0
KRLS 130000Z 21010G15KT 38/10 A2987 RMK A01 T03800104  RH  020%=      5-min Rain = 0
KRLS 130005Z 21010KT 38/11 A2987 RMK A01 T03800108  RH  020%=      5-min Rain = 0
KRLS 130010Z 19010G15KT 38/11 A2987 RMK A01 T03770112  RH  021%=      5-min Rain = 0
KRLS 130015Z 20011KT 37/11 A2987 RMK A01 T03740112  RH  022%=      5-min Rain = 0
KRLS 130020Z 20013KT 37/11 A2987 RMK A01 T03740111  RH  021%=      5-min Rain = 0
KRLS 130025Z 20009KT 37/11 A2988 RMK A01 T03730111  RH  021%=      5-min Rain = 0
KRLS 130030Z 20010KT 37/11 A2987 RMK A01 T03720109  RH  021%=      5-min Rain = 0
KRLS 130035Z 19009KT 37/11 A2987 RMK A01 T03710107  RH  021%=      5-min Rain = 0
KRLS 130040Z 20008KT 37/11 A2987 RMK A01 T03700110  RH  022%=      5-min Rain = 0
KRLS 130045Z 21009KT 37/11 A2987 RMK A01 T03680110  RH  022%=      5-min Rain = 0
KRLS 130050Z 20008KT 37/11 A2988 RMK A01 T03660111  RH  022%=      5-min Rain = 0
KRLS 130055Z 20007KT 36/11 A2988 RMK A01 T03600113  RH  023%=      5-min Rain = 0
KRLS 130100Z 20006KT 35/11 A2988 RMK A01 T03540114  RH  024%=      5-min Rain = 0
KRLS 130105Z 20005KT 35/12 A2988 RMK A01 T03500115  RH  025%=      5-min Rain = 0
KRLS 130110Z 20004KT 35/12 A2988 RMK A01 T03460117  RH  026%=      5-min Rain = 0
KRLS 130115Z 19003KT 34/12 A2988 RMK A01 T03430118  RH  027%=      5-min Rain = 0
KRLS 130120Z 14003KT 34/12 A2989 RMK A01 T03410123  RH  028%=      5-min Rain = 0
KRLS 130125Z 11002KT 34/12 A2989 RMK A01 T03410124  RH  028%=      5-min Rain = 0
KRLS 130130Z 13005KT 34/12 A2989 RMK A01 T03410124  RH  028%=      5-min Rain = 0
KRLS 130135Z 15006KT 34/12 A2989 RMK A01 T03420119  RH  027%=      5-min Rain = 0
KRLS 130140Z 16005KT 34/12 A2989 RMK A01 T03390118  RH  027%=      5-min Rain = 0
KRLS 130145Z 15004KT 34/12 A2989 RMK A01 T03390118  RH  027%=      5-min Rain = 0
KRLS 130150Z 14004KT 34/12 A2989 RMK A01 T03390119  RH  027%=      5-min Rain = 0
KRLS 130155Z 12005KT 34/12 A2989 RMK A01 T03400121  RH  028%=      5-min Rain = 0
KRLS 130200Z 11003KT 34/12 A2989 RMK A01 T03380121  RH  028%=      5-min Rain = 0
KRLS 130205Z 12004KT 34/12 A2989 RMK A01 T03360122  RH  028%=      5-min Rain = 0
KRLS 130210Z 13005KT 34/12 A2989 RMK A01 T03350124  RH  029%=      5-min Rain = 0
KRLS 130215Z 14006KT 34/12 A299 RMK A01 T03360124  RH  029%=      5-min Rain = 0
KRLS 130220Z 14006KT 33/13 A299 RMK A01 T03320126  RH  030%=      5-min Rain = 0
KRLS 130225Z 14005KT 33/13 A299 RMK A01 T03300127  RH  030%=      5-min Rain = 0
KRLS 130230Z 13005KT 33/13 A299 RMK A01 T03290126  RH  030%=      5-min Rain = 0
KRLS 130235Z 13005KT 33/13 A299 RMK A01 T03280127  RH  031%=      5-min Rain = 0
KRLS 130240Z 14005KT 33/13 A2991 RMK A01 T03260127  RH  031%=      5-min Rain = 0
KRLS 130245Z 14004KT 32/13 A2991 RMK A01 T03240128  RH  032%=      5-min Rain = 0
KRLS 130250Z 14005KT 32/13 A2991 RMK A01 T03220130  RH  032%=      5-min Rain = 0
KRLS 130255Z 14005KT 32/13 A2991 RMK A01 T03210131  RH  033%=      5-min Rain = 0
KRLS 130300Z 12005KT 32/13 A2991 RMK A01 T03180130  RH  033%=      5-min Rain = 0
KRLS 130305Z 11005KT 32/13 A2991 RMK A01 T03150127  RH  033%=      5-min Rain = 0
KRLS 130310Z 11007KT 31/13 A2991 RMK A01 T03140130  RH  034%=      5-min Rain = 0
KRLS 130315Z 12007KT 31/13 A2991 RMK A01 T03140132  RH  034%=      5-min Rain = 0
KRLS 130320Z 13006KT 32/13 A2992 RMK A01 T03150132  RH  034%=      5-min Rain = 0
KRLS 130325Z 13007KT 32/13 A2992 RMK A01 T03150134  RH  035%=      5-min Rain = 0
KRLS 130330Z 13008KT 32/14 A2992 RMK A01 T03160136  RH  035%=      5-min Rain = 0
KRLS 130335Z 13009KT 32/14 A2992 RMK A01 T03160137  RH  035%=      5-min Rain = 0
KRLS 130340Z 14009KT 32/14 A2992 RMK A01 T03170137  RH  035%=      5-min Rain = 0
KRLS 130345Z 13008KT 32/14 A2992 RMK A01 T03160137  RH  035%=      5-min Rain = 0
KRLS 130350Z 13008KT 32/14 A2992 RMK A01 T03160138  RH  035%=      5-min Rain = 0
KRLS 130355Z 13008KT 31/14 A2992 RMK A01 T03130138  RH  036%=      5-min Rain = 0
KRLS 130400Z 13008KT 31/14 A2993 RMK A01 T03110137  RH  036%=      5-min Rain = 0
KRLS 130405Z 12008KT 31/14 A2993 RMK A01 T03100137  RH  036%=      5-min Rain = 0
KRLS 130410Z 13008KT 31/14 A2993 RMK A01 T03100137  RH  036%=      5-min Rain = 0
KRLS 130415Z 13010KT 31/14 A2993 RMK A01 T03100137  RH  036%=      5-min Rain = 0
KRLS 130420Z 13009KT 31/14 A2993 RMK A01 T03110136  RH  036%=      5-min Rain = 0
KRLS 130425Z 13009KT 31/14 A2993 RMK A01 T03100137  RH  036%=      5-min Rain = 0
KRLS 130430Z 13010KT 31/14 A2993 RMK A01 T03070136  RH  037%=      5-min Rain = 0
KRLS 130435Z 13009KT 31/14 A2993 RMK A01 T03070136  RH  037%=      5-min Rain = 0
KRLS 130440Z 13008KT 31/14 A2993 RMK A01 T03060136  RH  037%=      5-min Rain = 0
KRLS 130445Z 14008KT 31/14 A2993 RMK A01 T03050136  RH  037%=      5-min Rain = 0
KRLS 130450Z 14009KT 31/14 A2993 RMK A01 T03050136  RH  037%=      5-min Rain = 0
KRLS 130455Z 15009KT 30/14 A2993 RMK A01 T03040136  RH  037%=      5-min Rain = 0

Page generated in 0.0186 seconds.